createdAt,value
2018-12-27T00:01:34.814Z,3.70
2018-12-27T00:04:03.610Z,3.60
2018-12-27T00:06:32.259Z,3.60
2018-12-27T00:09:01.135Z,3.60
2018-12-27T00:11:30.275Z,3.70
2018-12-27T00:13:59.368Z,3.70
2018-12-27T00:16:28.556Z,3.70
2018-12-27T00:18:57.809Z,3.60
2018-12-27T00:21:27.021Z,3.60
2018-12-27T00:23:56.008Z,3.70
2018-12-27T00:26:25.076Z,3.70
2018-12-27T00:28:54.266Z,3.80
2018-12-27T00:31:23.103Z,3.80
2018-12-27T00:33:53.347Z,3.70
2018-12-27T00:36:22.174Z,3.70
2018-12-27T00:38:51.615Z,3.70
2018-12-27T00:41:20.494Z,3.70
2018-12-27T00:43:49.330Z,3.60
2018-12-27T00:46:18.549Z,3.60
2018-12-27T00:48:47.986Z,3.70
2018-12-27T00:51:17.278Z,3.70
2018-12-27T00:53:46.139Z,3.60
2018-12-27T00:56:15.440Z,3.60
2018-12-27T00:58:44.653Z,3.60
2018-12-27T01:01:13.570Z,3.60
2018-12-27T01:03:42.452Z,3.60
2018-12-27T01:06:11.414Z,3.50
2018-12-27T01:08:40.378Z,3.50
2018-12-27T01:11:09.276Z,3.50
2018-12-27T01:13:38.120Z,3.50
2018-12-27T01:16:07.558Z,3.50
2018-12-27T01:18:36.473Z,3.50
2018-12-27T01:21:05.845Z,3.40
2018-12-27T01:23:34.694Z,3.50
2018-12-27T01:26:03.654Z,3.60
2018-12-27T01:28:32.529Z,3.60
2018-12-27T01:31:01.374Z,3.60
2018-12-27T01:33:30.664Z,3.60
2018-12-27T01:35:59.589Z,3.60
2018-12-27T01:38:28.922Z,3.60
2018-12-27T01:40:58.126Z,3.60
2018-12-27T01:43:27.329Z,3.50
2018-12-27T01:45:56.670Z,3.50
2018-12-27T01:48:25.514Z,3.50
2018-12-27T01:50:54.494Z,3.50
2018-12-27T01:53:23.329Z,3.50
2018-12-27T01:55:52.627Z,3.50
2018-12-27T01:58:21.522Z,3.50
2018-12-27T02:00:50.422Z,3.50
2018-12-27T02:03:26.347Z,3.50
2018-12-27T02:05:50.528Z,3.50
2018-12-27T02:08:19.325Z,3.40
2018-12-27T02:10:48.166Z,3.40
2018-12-27T02:13:17.073Z,3.40
2018-12-27T02:15:45.837Z,3.40
2018-12-27T02:18:15.067Z,3.40
2018-12-27T02:20:43.838Z,3.40
2018-12-27T02:23:12.698Z,3.40
2018-12-27T02:25:41.964Z,3.40
2018-12-27T02:28:10.863Z,3.40
2018-12-27T02:30:39.708Z,3.40
2018-12-27T02:33:08.760Z,3.50
2018-12-27T02:35:37.567Z,3.40
2018-12-27T02:38:06.786Z,3.40
2018-12-27T02:40:35.650Z,3.30
2018-12-27T02:43:04.912Z,3.30
2018-12-27T02:45:33.652Z,3.40
2018-12-27T02:48:02.598Z,3.40
2018-12-27T02:50:31.771Z,3.40
2018-12-27T02:53:00.660Z,3.30
2018-12-27T02:55:29.587Z,3.30
2018-12-27T02:57:58.872Z,3.30
2018-12-27T03:00:28.161Z,3.30
2018-12-27T03:02:57.063Z,3.40
2018-12-27T03:05:26.219Z,3.30
2018-12-27T03:07:55.059Z,3.30
2018-12-27T03:10:24.067Z,3.30
2018-12-27T03:12:52.924Z,3.20
2018-12-27T03:15:22.362Z,3.20
2018-12-27T03:17:51.717Z,3.20
2018-12-27T03:20:20.963Z,3.20
2018-12-27T03:22:50.119Z,3.20
2018-12-27T03:25:19.276Z,3.20
2018-12-27T03:27:48.137Z,3.10
2018-12-27T03:30:17.404Z,3.10
2018-12-27T03:32:46.617Z,3.10
2018-12-27T03:35:15.850Z,3.00
2018-12-27T03:37:45.119Z,3.00
2018-12-27T03:40:14.051Z,3.00
2018-12-27T03:42:42.950Z,3.00
2018-12-27T03:45:12.322Z,3.00
2018-12-27T03:47:41.279Z,2.90
2018-12-27T03:50:10.106Z,2.90
2018-12-27T03:52:39.025Z,2.90
2018-12-27T03:55:08.249Z,2.80
2018-12-27T03:57:37.199Z,2.80
2018-12-27T04:00:06.468Z,2.80
2018-12-27T04:02:35.261Z,2.80
2018-12-27T04:05:04.530Z,2.70
2018-12-27T04:07:33.559Z,2.60
2018-12-27T04:10:02.395Z,2.60
2018-12-27T04:12:31.582Z,2.60
2018-12-27T04:15:03.312Z,2.60
2018-12-27T04:17:31.958Z,2.50
2018-12-27T04:20:01.009Z,2.50
2018-12-27T04:22:29.786Z,2.50
2018-12-27T04:24:59.075Z,2.50
2018-12-27T04:27:28.179Z,2.50
2018-12-27T04:29:56.976Z,2.40
2018-12-27T04:32:26.286Z,2.40
2018-12-27T04:34:55.323Z,2.30
2018-12-27T04:37:24.113Z,2.20
2018-12-27T04:39:53.335Z,2.20
2018-12-27T04:42:22.842Z,2.20
2018-12-27T04:44:51.631Z,2.20
2018-12-27T04:47:20.770Z,2.20
2018-12-27T04:49:49.511Z,2.20
2018-12-27T04:52:18.641Z,2.10
2018-12-27T04:54:47.269Z,2.10
2018-12-27T04:57:16.376Z,2.10
2018-12-27T04:59:45.037Z,2.10
2018-12-27T05:02:13.853Z,2.10
2018-12-27T05:04:42.633Z,2.10
2018-12-27T05:07:11.365Z,2.10
2018-12-27T05:09:40.447Z,2.00
2018-12-27T05:12:09.108Z,2.00
2018-12-27T05:14:38.152Z,2.10
2018-12-27T05:17:06.895Z,2.10
2018-12-27T05:19:35.925Z,2.00
2018-12-27T05:22:05.066Z,2.00
2018-12-27T05:24:33.749Z,2.00
2018-12-27T05:27:02.368Z,2.10
2018-12-27T05:29:31.251Z,2.10
2018-12-27T05:31:59.790Z,2.10
2018-12-27T05:34:28.720Z,2.10
2018-12-27T05:36:57.790Z,2.00
2018-12-27T05:39:26.979Z,2.10
2018-12-27T05:41:55.806Z,2.10
2018-12-27T05:44:24.536Z,2.10
2018-12-27T05:46:53.517Z,2.10
2018-12-27T05:49:22.359Z,2.00
2018-12-27T05:51:50.945Z,1.90
2018-12-27T05:54:20.074Z,1.90
2018-12-27T05:56:49.146Z,1.90
2018-12-27T05:59:17.886Z,1.90
2018-12-27T06:01:46.570Z,2.00
2018-12-27T06:04:15.710Z,1.90
2018-12-27T06:06:44.786Z,1.80
2018-12-27T06:09:13.692Z,1.90
2018-12-27T06:11:42.415Z,1.80
2018-12-27T06:14:11.725Z,1.80
2018-12-27T06:16:41.001Z,1.80
2018-12-27T06:19:09.765Z,1.80
2018-12-27T06:21:38.503Z,1.70
2018-12-27T06:24:07.300Z,1.70
2018-12-27T06:26:36.109Z,1.70
2018-12-27T06:29:04.688Z,1.80
2018-12-27T06:31:33.131Z,1.80
2018-12-27T06:34:01.869Z,1.80
2018-12-27T06:36:30.313Z,1.70
2018-12-27T06:38:59.073Z,1.70
2018-12-27T06:41:27.527Z,1.70
2018-12-27T06:43:56.282Z,1.70
2018-12-27T06:46:25.034Z,1.70
2018-12-27T06:48:53.574Z,1.70
2018-12-27T06:51:22.312Z,1.70
2018-12-27T06:53:51.043Z,1.80
2018-12-27T06:56:19.788Z,1.80
2018-12-27T06:58:48.563Z,1.80
2018-12-27T07:01:17.318Z,1.80
2018-12-27T07:03:45.762Z,1.70
2018-12-27T07:06:14.235Z,1.70
2018-12-27T07:08:43.281Z,1.70
2018-12-27T07:11:12.316Z,1.70
2018-12-27T07:13:40.936Z,1.70
2018-12-27T07:16:09.803Z,1.70
2018-12-27T07:18:39.081Z,1.70
2018-12-27T07:21:07.884Z,1.70
2018-12-27T07:23:36.332Z,1.70
2018-12-27T07:26:05.170Z,1.70
2018-12-27T07:28:33.923Z,1.70
2018-12-27T07:31:02.736Z,1.60
2018-12-27T07:33:31.499Z,1.60
2018-12-27T07:36:00.003Z,1.60
2018-12-27T07:38:28.440Z,1.60
2018-12-27T07:40:57.247Z,1.70
2018-12-27T07:43:26.280Z,1.70
2018-12-27T07:45:54.742Z,1.70
2018-12-27T07:48:23.205Z,1.70
2018-12-27T07:50:51.852Z,1.80
2018-12-27T07:53:20.375Z,1.70
2018-12-27T07:55:48.899Z,1.70
2018-12-27T07:58:17.759Z,1.70
2018-12-27T08:00:46.852Z,1.70
2018-12-27T08:03:15.495Z,1.80
2018-12-27T08:05:44.310Z,1.90
2018-12-27T08:08:13.573Z,1.90
2018-12-27T08:10:42.273Z,1.90
2018-12-27T08:13:11.109Z,1.90
2018-12-27T08:15:39.752Z,1.90
2018-12-27T08:18:08.997Z,1.90
2018-12-27T08:20:37.695Z,1.90
2018-12-27T08:23:06.722Z,1.80
2018-12-27T08:25:35.454Z,1.80
2018-12-27T08:28:04.309Z,1.80
2018-12-27T08:30:32.965Z,1.90
2018-12-27T08:33:01.870Z,2.00
2018-12-27T08:35:30.539Z,2.00
2018-12-27T08:37:59.406Z,2.00
2018-12-27T08:40:27.873Z,2.00
2018-12-27T08:42:56.339Z,2.00
2018-12-27T08:45:25.093Z,2.00
2018-12-27T08:47:53.615Z,2.00
2018-12-27T08:50:22.372Z,2.00
2018-12-27T08:52:50.880Z,2.00
2018-12-27T08:55:19.319Z,2.00
2018-12-27T08:57:47.770Z,2.10
2018-12-27T09:00:16.600Z,2.20
2018-12-27T09:02:45.226Z,2.30
2018-12-27T09:05:18.819Z,2.30
2018-12-27T09:07:43.893Z,2.30
2018-12-27T09:10:12.708Z,2.40
2018-12-27T09:12:41.163Z,2.40
2018-12-27T09:15:09.613Z,2.50
2018-12-27T09:17:38.666Z,2.50
2018-12-27T09:20:09.022Z,2.50
2018-12-27T09:22:37.629Z,2.50
2018-12-27T09:25:06.655Z,2.60
2018-12-27T09:27:35.312Z,2.80
2018-12-27T09:30:05.159Z,2.90
2018-12-27T09:32:33.882Z,2.90
2018-12-27T09:35:03.101Z,2.90
2018-12-27T09:37:31.883Z,3.00
2018-12-27T09:40:00.640Z,3.00
2018-12-27T09:42:29.737Z,3.10
2018-12-27T09:44:58.759Z,3.20
2018-12-27T09:47:27.554Z,3.30
2018-12-27T09:49:56.726Z,3.40
2018-12-27T09:52:26.016Z,3.50
2018-12-27T09:54:55.006Z,3.50
2018-12-27T09:57:23.777Z,3.60
2018-12-27T09:59:52.547Z,3.60
2018-12-27T10:02:21.350Z,3.70
2018-12-27T10:04:50.036Z,3.70
2018-12-27T10:07:18.782Z,3.80
2018-12-27T10:09:47.497Z,3.90
2018-12-27T10:12:16.301Z,4.00
2018-12-27T10:14:45.053Z,4.10
2018-12-27T10:17:13.764Z,4.20
2018-12-27T10:19:43.064Z,4.30
2018-12-27T10:22:12.228Z,4.40
2018-12-27T10:24:41.152Z,4.50
2018-12-27T10:27:10.002Z,4.60
2018-12-27T10:29:38.838Z,4.70
2018-12-27T10:32:07.488Z,4.70
2018-12-27T10:34:36.292Z,4.70
2018-12-27T10:37:05.465Z,4.80
2018-12-27T10:39:34.308Z,4.90
2018-12-27T10:42:03.143Z,4.90
2018-12-27T10:44:31.892Z,4.90
2018-12-27T10:47:00.599Z,5.00
2018-12-27T10:49:29.379Z,5.00
2018-12-27T10:51:58.549Z,5.10
2018-12-27T10:54:27.682Z,5.10
2018-12-27T10:56:56.903Z,5.20
2018-12-27T10:59:26.119Z,5.30
2018-12-27T11:01:54.884Z,5.30
2018-12-27T11:04:23.969Z,5.40
2018-12-27T11:06:53.166Z,5.40
2018-12-27T11:09:25.010Z,5.50
2018-12-27T11:11:54.053Z,5.50
2018-12-27T11:14:22.816Z,5.50
2018-12-27T11:16:52.006Z,5.60
2018-12-27T11:19:20.801Z,5.60
2018-12-27T11:21:49.633Z,5.70
2018-12-27T11:24:18.440Z,5.70
2018-12-27T11:26:47.235Z,5.70
2018-12-27T11:29:15.941Z,5.70
2018-12-27T11:31:45.129Z,5.80
2018-12-27T11:34:14.256Z,5.70
2018-12-27T11:36:43.378Z,5.80
2018-12-27T11:39:12.141Z,5.80
2018-12-27T11:41:40.880Z,5.80
2018-12-27T11:44:09.660Z,5.80
2018-12-27T11:46:38.455Z,5.80
2018-12-27T11:49:07.515Z,5.80
2018-12-27T11:51:36.295Z,5.80
2018-12-27T11:54:05.579Z,5.80
2018-12-27T11:56:34.398Z,5.80
2018-12-27T11:59:03.081Z,5.90
2018-12-27T12:01:31.813Z,6.00
2018-12-27T12:04:00.994Z,6.00
2018-12-27T12:06:30.263Z,6.00
2018-12-27T12:08:59.032Z,6.10
2018-12-27T12:11:27.883Z,6.10
2018-12-27T12:13:56.911Z,6.10
2018-12-27T12:16:25.764Z,6.00
2018-12-27T12:18:54.615Z,6.10
2018-12-27T12:21:23.427Z,6.10
2018-12-27T12:23:55.222Z,6.10
2018-12-27T12:26:24.289Z,6.10
2018-12-27T12:28:53.060Z,6.10
2018-12-27T12:31:22.231Z,6.10
2018-12-27T12:33:51.036Z,6.10
2018-12-27T12:36:19.855Z,6.10
2018-12-27T12:38:48.612Z,6.10
2018-12-27T12:41:17.839Z,6.10
2018-12-27T12:43:46.555Z,6.10
2018-12-27T12:46:15.430Z,6.20
2018-12-27T12:48:44.554Z,6.20
2018-12-27T12:51:13.704Z,6.20
2018-12-27T12:53:42.579Z,6.20
2018-12-27T12:56:11.775Z,6.30
2018-12-27T12:58:40.496Z,6.30
2018-12-27T13:01:09.492Z,6.30
2018-12-27T13:03:38.290Z,6.40
2018-12-27T13:06:07.118Z,6.40
2018-12-27T13:08:35.847Z,6.40
2018-12-27T13:11:05.027Z,6.40
2018-12-27T13:13:34.215Z,6.40
2018-12-27T13:16:03.327Z,6.40
2018-12-27T13:18:32.033Z,6.40
2018-12-27T13:21:01.244Z,6.50
2018-12-27T13:23:30.472Z,6.50
2018-12-27T13:25:59.283Z,6.50
2018-12-27T13:28:28.543Z,6.40
2018-12-27T13:30:57.667Z,6.40
2018-12-27T13:33:26.391Z,6.50
2018-12-27T13:35:55.500Z,6.40
2018-12-27T13:38:24.736Z,6.40
2018-12-27T13:40:53.748Z,6.50
2018-12-27T13:43:22.456Z,6.50
2018-12-27T13:45:51.162Z,6.40
2018-12-27T13:48:19.946Z,6.40
2018-12-27T13:50:48.625Z,6.50
2018-12-27T13:53:17.251Z,6.40
2018-12-27T13:55:46.922Z,6.40
2018-12-27T13:58:15.724Z,6.40
2018-12-27T14:00:44.319Z,6.40
2018-12-27T14:03:13.468Z,6.40
2018-12-27T14:05:42.112Z,6.40
2018-12-27T14:08:10.729Z,6.40
2018-12-27T14:10:39.477Z,6.40
2018-12-27T14:13:08.632Z,6.30
2018-12-27T14:15:37.324Z,6.40
2018-12-27T14:18:06.399Z,6.30
2018-12-27T14:20:35.260Z,6.30
2018-12-27T14:23:04.302Z,6.30
2018-12-27T14:25:32.892Z,6.30
2018-12-27T14:28:01.885Z,6.30
2018-12-27T14:30:30.363Z,6.30
2018-12-27T14:32:58.827Z,6.30
2018-12-27T14:35:27.562Z,6.30
2018-12-27T14:37:56.425Z,6.30
2018-12-27T14:40:25.145Z,6.30
2018-12-27T14:42:53.892Z,6.40
2018-12-27T14:45:22.333Z,6.30
2018-12-27T14:47:51.071Z,6.30
2018-12-27T14:50:19.507Z,6.30
2018-12-27T14:52:47.952Z,6.20
2018-12-27T14:55:16.689Z,6.10
2018-12-27T14:57:45.194Z,6.00
2018-12-27T15:00:13.759Z,5.90
2018-12-27T15:02:42.272Z,5.90
2018-12-27T15:05:11.040Z,5.90
2018-12-27T15:07:39.510Z,5.80
2018-12-27T15:10:09.262Z,5.80
2018-12-27T15:12:37.720Z,5.70
2018-12-27T15:15:06.278Z,5.60
2018-12-27T15:17:35.004Z,5.60
2018-12-27T15:20:04.586Z,5.40
2018-12-27T15:22:33.029Z,5.50
2018-12-27T15:25:01.823Z,5.40
2018-12-27T15:27:30.581Z,5.40
2018-12-27T15:29:59.012Z,5.40
2018-12-27T15:32:27.480Z,5.30
2018-12-27T15:34:56.224Z,5.20
2018-12-27T15:37:24.671Z,5.10
2018-12-27T15:39:53.110Z,5.00
2018-12-27T15:42:21.939Z,5.00
2018-12-27T15:44:50.481Z,5.00
2018-12-27T15:47:18.996Z,5.00
2018-12-27T15:49:47.419Z,4.90
2018-12-27T15:52:15.985Z,4.80
2018-12-27T15:54:44.427Z,4.80
2018-12-27T15:57:12.887Z,4.80
2018-12-27T15:59:41.679Z,4.70
2018-12-27T16:02:10.123Z,4.80
2018-12-27T16:04:38.555Z,4.80
2018-12-27T16:07:06.994Z,4.80
2018-12-27T16:09:35.436Z,4.80
2018-12-27T16:12:03.867Z,4.70
2018-12-27T16:14:32.315Z,4.80
2018-12-27T16:17:00.739Z,4.70
2018-12-27T16:19:29.206Z,4.70
2018-12-27T16:21:58.444Z,4.80
2018-12-27T16:24:26.888Z,4.80
2018-12-27T16:26:55.328Z,4.70
2018-12-27T16:29:24.063Z,4.60
2018-12-27T16:31:52.495Z,4.60
2018-12-27T16:34:20.944Z,4.60
2018-12-27T16:36:49.368Z,4.60
2018-12-27T16:39:17.903Z,4.70
2018-12-27T16:41:46.641Z,4.70
2018-12-27T16:44:15.079Z,4.70
2018-12-27T16:46:43.821Z,4.70
2018-12-27T16:49:12.556Z,4.70
2018-12-27T16:51:41.287Z,4.70
2018-12-27T16:54:10.055Z,4.60
2018-12-27T16:56:38.787Z,4.60
2018-12-27T16:59:07.247Z,4.60
2018-12-27T17:01:35.762Z,4.50
2018-12-27T17:04:04.201Z,4.50
2018-12-27T17:06:32.932Z,4.50
2018-12-27T17:09:01.676Z,4.50
2018-12-27T17:11:30.126Z,4.50
2018-12-27T17:13:58.939Z,4.50
2018-12-27T17:16:27.664Z,4.50
2018-12-27T17:18:56.408Z,4.50
2018-12-27T17:21:24.839Z,4.60
2018-12-27T17:23:53.284Z,4.50
2018-12-27T17:26:21.723Z,4.60
2018-12-27T17:28:50.166Z,4.60
2018-12-27T17:31:18.595Z,4.60
2018-12-27T17:33:47.066Z,4.60
2018-12-27T17:36:15.507Z,4.50
2018-12-27T17:38:43.931Z,4.40
2018-12-27T17:41:12.388Z,4.40
2018-12-27T17:43:41.139Z,4.40
2018-12-27T17:46:09.903Z,4.30
2018-12-27T17:48:38.660Z,4.40
2018-12-27T17:51:07.128Z,4.40
2018-12-27T17:53:35.567Z,4.40
2018-12-27T17:56:04.311Z,4.30
2018-12-27T17:58:33.073Z,4.20
2018-12-27T18:01:01.895Z,4.20
2018-12-27T18:03:30.646Z,4.20
2018-12-27T18:05:59.399Z,4.10
2018-12-27T18:08:27.831Z,4.20
2018-12-27T18:10:56.592Z,4.20
2018-12-27T18:13:25.333Z,4.20
2018-12-27T18:15:53.783Z,4.10
2018-12-27T18:18:22.215Z,4.10
2018-12-27T18:20:50.651Z,4.10
2018-12-27T18:23:19.391Z,4.10
2018-12-27T18:25:47.839Z,4.10
2018-12-27T18:28:16.297Z,4.10
2018-12-27T18:30:44.752Z,4.10
2018-12-27T18:33:13.257Z,4.10
2018-12-27T18:35:41.735Z,4.20
2018-12-27T18:38:10.179Z,4.20
2018-12-27T18:40:39.005Z,4.20
2018-12-27T18:43:07.440Z,4.10
2018-12-27T18:45:35.867Z,4.10
2018-12-27T18:48:04.671Z,4.10
2018-12-27T18:50:33.320Z,4.20
2018-12-27T18:53:01.840Z,4.10
2018-12-27T18:55:30.685Z,4.00
2018-12-27T18:57:59.232Z,4.10
2018-12-27T19:00:27.691Z,3.90
2018-12-27T19:02:56.164Z,3.90
2018-12-27T19:05:24.963Z,3.80
2018-12-27T19:07:53.460Z,3.70
2018-12-27T19:10:22.248Z,3.70
2018-12-27T19:13:05.550Z,3.60
2018-12-27T19:15:37.446Z,3.50
2018-12-27T19:18:08.989Z,3.40
2018-12-27T19:20:39.984Z,3.30
2018-12-27T19:23:11.469Z,3.30
2018-12-27T19:25:40.216Z,3.30
2018-12-27T19:28:08.668Z,3.30
2018-12-27T19:30:37.106Z,3.30
2018-12-27T19:33:05.557Z,3.30
2018-12-27T19:35:37.402Z,3.40
2018-12-27T19:38:05.872Z,3.30
2018-12-27T19:40:34.656Z,3.20
2018-12-27T19:43:03.259Z,3.20
2018-12-27T19:45:31.691Z,3.10
2018-12-27T19:48:00.424Z,3.10
2018-12-27T19:50:29.239Z,3.10
2018-12-27T19:52:58.031Z,3.10
2018-12-27T19:55:26.547Z,3.00
2018-12-27T19:57:55.032Z,3.10
2018-12-27T20:00:23.548Z,3.20
2018-12-27T20:02:51.978Z,3.20
2018-12-27T20:05:20.731Z,3.20
2018-12-27T20:07:49.235Z,3.20
2018-12-27T20:10:17.997Z,3.20
2018-12-27T20:12:46.815Z,3.30
2018-12-27T20:15:15.644Z,3.30
2018-12-27T20:17:44.477Z,3.30
2018-12-27T20:20:12.999Z,3.20
2018-12-27T20:22:41.731Z,3.10
2018-12-27T20:25:10.184Z,3.10
2018-12-27T20:27:38.933Z,3.10
2018-12-27T20:30:08.560Z,3.20
2018-12-27T20:32:37.144Z,3.30
2018-12-27T20:35:06.104Z,3.30
2018-12-27T20:37:34.887Z,3.20
2018-12-27T20:40:03.455Z,3.20
2018-12-27T20:42:31.947Z,3.20
2018-12-27T20:45:00.491Z,3.10
2018-12-27T20:47:29.216Z,3.10
2018-12-27T20:49:58.017Z,3.10
2018-12-27T20:52:26.648Z,3.10
2018-12-27T20:54:55.130Z,3.10
2018-12-27T20:57:23.551Z,3.20
2018-12-27T20:59:52.322Z,3.20
2018-12-27T21:02:21.036Z,3.20
2018-12-27T21:04:49.516Z,3.10
2018-12-27T21:07:18.295Z,3.10
2018-12-27T21:09:47.113Z,3.10
2018-12-27T21:12:15.573Z,3.10
2018-12-27T21:14:44.103Z,3.10
2018-12-27T21:17:15.727Z,3.10
2018-12-27T21:19:44.656Z,3.20
2018-12-27T21:22:13.376Z,3.10
2018-12-27T21:24:41.838Z,3.20
2018-12-27T21:27:10.544Z,3.20
2018-12-27T21:29:39.274Z,3.20
2018-12-27T21:32:08.032Z,3.20
2018-12-27T21:34:36.484Z,3.20
2018-12-27T21:37:04.960Z,3.20
2018-12-27T21:39:33.430Z,3.10
2018-12-27T21:42:02.163Z,3.00
2018-12-27T21:44:30.608Z,3.10
2018-12-27T21:46:59.111Z,3.00
2018-12-27T21:49:27.920Z,3.00
2018-12-27T21:51:56.430Z,2.90
2018-12-27T21:54:24.905Z,2.90
2018-12-27T21:56:53.467Z,2.90
2018-12-27T21:59:22.028Z,2.90
2018-12-27T22:01:50.841Z,3.00
2018-12-27T22:04:19.340Z,3.00
2018-12-27T22:06:47.824Z,3.00
2018-12-27T22:09:16.243Z,3.00
2018-12-27T22:11:45.021Z,3.00
2018-12-27T22:14:13.547Z,3.00
2018-12-27T22:16:41.999Z,2.90
2018-12-27T22:19:10.447Z,2.90
2018-12-27T22:21:39.211Z,2.80
2018-12-27T22:24:07.658Z,2.70
2018-12-27T22:26:37.632Z,2.70
2018-12-27T22:29:06.170Z,2.60
2018-12-27T22:31:34.630Z,2.60
2018-12-27T22:34:03.342Z,2.60
2018-12-27T22:36:31.795Z,2.60
2018-12-27T22:39:00.270Z,2.60
2018-12-27T22:41:28.998Z,2.70
2018-12-27T22:43:57.531Z,2.70
2018-12-27T22:46:26.343Z,2.70
2018-12-27T22:48:55.173Z,2.80
2018-12-27T22:51:23.915Z,2.90
2018-12-27T22:53:52.435Z,2.80
2018-12-27T22:56:21.204Z,2.70
2018-12-27T22:58:49.944Z,2.70
2018-12-27T23:01:18.479Z,2.70
2018-12-27T23:03:47.019Z,2.70
2018-12-27T23:06:15.468Z,2.70
2018-12-27T23:08:43.918Z,2.70
2018-12-27T23:11:12.622Z,2.60
2018-12-27T23:13:41.379Z,2.60
2018-12-27T23:16:09.882Z,2.60
2018-12-27T23:18:38.335Z,2.60
2018-12-27T23:21:06.779Z,2.60
2018-12-27T23:23:35.516Z,2.50
2018-12-27T23:26:03.967Z,2.50
2018-12-27T23:28:32.430Z,2.40
2018-12-27T23:31:01.170Z,2.30
2018-12-27T23:33:29.615Z,2.20
2018-12-27T23:35:58.358Z,2.30
2018-12-27T23:38:26.863Z,2.30
2018-12-27T23:40:55.296Z,2.30
2018-12-27T23:43:23.733Z,2.30
2018-12-27T23:45:52.267Z,2.40
2018-12-27T23:48:20.765Z,2.40
2018-12-27T23:50:49.533Z,2.40
2018-12-27T23:53:18.240Z,2.30
2018-12-27T23:55:46.698Z,2.30
2018-12-27T23:58:15.399Z,2.40
